sensor_id;sensor_type;location;lat;lon;timestamp;temperature;humidity
64796;DHT22;51229;51.980;6.722;2022-09-29T00:01:30;6.00;99.90
64796;DHT22;51229;51.980;6.722;2022-09-29T00:03:56;6.10;99.90
64796;DHT22;51229;51.980;6.722;2022-09-29T00:06:22;6.00;99.90
64796;DHT22;51229;51.980;6.722;2022-09-29T00:08:48;6.00;99.90
64796;DHT22;51229;51.980;6.722;2022-09-29T00:11:16;6.00;99.90
64796;DHT22;51229;51.980;6.722;2022-09-29T00:13:42;6.00;99.90
64796;DHT22;51229;51.980;6.722;2022-09-29T00:16:12;6.00;99.90
64796;DHT22;51229;51.980;6.722;2022-09-29T00:18:38;6.00;99.90
64796;DHT22;51229;51.980;6.722;2022-09-29T00:21:10;6.00;99.90
64796;DHT22;51229;51.980;6.722;2022-09-29T00:23:37;6.00;99.90
64796;DHT22;51229;51.980;6.722;2022-09-29T00:26:09;5.90;99.90
64796;DHT22;51229;51.980;6.722;2022-09-29T00:28:36;5.90;99.90
64796;DHT22;51229;51.980;6.722;2022-09-29T00:31:04;5.80;99.90
64796;DHT22;51229;51.980;6.722;2022-09-29T00:33:32;5.90;99.90
64796;DHT22;51229;51.980;6.722;2022-09-29T00:36:01;5.80;99.90
64796;DHT22;51229;51.980;6.722;2022-09-29T00:38:28;5.80;99.90
64796;DHT22;51229;51.980;6.722;2022-09-29T00:40:54;5.80;99.90
64796;DHT22;51229;51.980;6.722;2022-09-29T00:43:23;5.80;99.90
64796;DHT22;51229;51.980;6.722;2022-09-29T00:45:52;5.80;99.90
64796;DHT22;51229;51.980;6.722;2022-09-29T00:48:24;5.80;99.90
64796;DHT22;51229;51.980;6.722;2022-09-29T00:50:52;5.80;99.90
64796;DHT22;51229;51.980;6.722;2022-09-29T00:53:19;5.70;99.90
64796;DHT22;51229;51.980;6.722;2022-09-29T00:55:53;5.70;99.90
64796;DHT22;51229;51.980;6.722;2022-09-29T00:58:44;5.70;99.90
64796;DHT22;51229;51.980;6.722;2022-09-29T01:01:14;5.70;99.90
64796;DHT22;51229;51.980;6.722;2022-09-29T01:03:43;5.70;99.90
64796;DHT22;51229;51.980;6.722;2022-09-29T01:06:24;5.70;99.90
64796;DHT22;51229;51.980;6.722;2022-09-29T01:08:59;5.60;99.90
64796;DHT22;51229;51.980;6.722;2022-09-29T01:11:26;5.60;99.90
64796;DHT22;51229;51.980;6.722;2022-09-29T01:13:55;5.60;99.90
64796;DHT22;51229;51.980;6.722;2022-09-29T01:16:26;5.60;99.90
64796;DHT22;51229;51.980;6.722;2022-09-29T01:18:52;5.50;99.90
64796;DHT22;51229;51.980;6.722;2022-09-29T01:27:09;5.50;99.90
64796;DHT22;51229;51.980;6.722;2022-09-29T01:32:18;5.50;99.90
64796;DHT22;51229;51.980;6.722;2022-09-29T01:37:58;5.40;99.90
64796;DHT22;51229;51.980;6.722;2022-09-29T01:41:08;5.40;99.90
64796;DHT22;51229;51.980;6.722;2022-09-29T01:43:37;5.40;99.90
64796;DHT22;51229;51.980;6.722;2022-09-29T01:46:15;5.40;99.90
64796;DHT22;51229;51.980;6.722;2022-09-29T01:48:49;5.40;99.90
64796;DHT22;51229;51.980;6.722;2022-09-29T01:51:21;5.30;99.90
64796;DHT22;51229;51.980;6.722;2022-09-29T01:53:51;5.30;99.90
64796;DHT22;51229;51.980;6.722;2022-09-29T01:59:08;5.30;99.90
64796;DHT22;51229;51.980;6.722;2022-09-29T02:01:39;5.30;99.90
64796;DHT22;51229;51.980;6.722;2022-09-29T02:04:15;5.30;99.90
64796;DHT22;51229;51.980;6.722;2022-09-29T02:06:48;5.20;99.90
64796;DHT22;51229;51.980;6.722;2022-09-29T02:09:24;5.20;99.90
64796;DHT22;51229;51.980;6.722;2022-09-29T02:11:51;5.20;99.90
64796;DHT22;51229;51.980;6.722;2022-09-29T02:14:22;5.20;99.90
64796;DHT22;51229;51.980;6.722;2022-09-29T02:17:09;5.20;99.90
64796;DHT22;51229;51.980;6.722;2022-09-29T02:19:39;5.20;99.90
64796;DHT22;51229;51.980;6.722;2022-09-29T02:22:06;5.10;99.90
64796;DHT22;51229;51.980;6.722;2022-09-29T02:24:32;5.20;99.90
64796;DHT22;51229;51.980;6.722;2022-09-29T02:26:58;5.10;99.90
64796;DHT22;51229;51.980;6.722;2022-09-29T02:29:25;5.10;99.90
64796;DHT22;51229;51.980;6.722;2022-09-29T02:31:51;5.10;99.90
64796;DHT22;51229;51.980;6.722;2022-09-29T02:34:18;5.00;99.90
64796;DHT22;51229;51.980;6.722;2022-09-29T02:37:04;5.00;99.90
64796;DHT22;51229;51.980;6.722;2022-09-29T02:39:53;5.00;99.90
64796;DHT22;51229;51.980;6.722;2022-09-29T02:48:07;4.90;99.90
64796;DHT22;51229;51.980;6.722;2022-09-29T02:50:55;4.90;99.90
64796;DHT22;51229;51.980;6.722;2022-09-29T02:53:56;4.90;99.90
64796;DHT22;51229;51.980;6.722;2022-09-29T02:56:57;4.90;99.90
64796;DHT22;51229;51.980;6.722;2022-09-29T02:59:34;4.80;99.90
64796;DHT22;51229;51.980;6.722;2022-09-29T03:02:02;4.80;99.90
64796;DHT22;51229;51.980;6.722;2022-09-29T03:04:27;4.80;99.90
64796;DHT22;51229;51.980;6.722;2022-09-29T03:06:53;4.70;99.90
64796;DHT22;51229;51.980;6.722;2022-09-29T03:09:19;4.70;99.90
64796;DHT22;51229;51.980;6.722;2022-09-29T03:11:45;4.70;99.90
64796;DHT22;51229;51.980;6.722;2022-09-29T03:14:11;4.70;99.90
64796;DHT22;51229;51.980;6.722;2022-09-29T03:16:37;4.70;99.90
64796;DHT22;51229;51.980;6.722;2022-09-29T03:19:04;4.70;99.90
64796;DHT22;51229;51.980;6.722;2022-09-29T03:21:31;4.70;99.90
64796;DHT22;51229;51.980;6.722;2022-09-29T03:23:57;4.70;99.90
64796;DHT22;51229;51.980;6.722;2022-09-29T03:26:23;4.70;99.90
64796;DHT22;51229;51.980;6.722;2022-09-29T03:28:50;4.60;99.90
64796;DHT22;51229;51.980;6.722;2022-09-29T03:31:16;4.60;99.90
64796;DHT22;51229;51.980;6.722;2022-09-29T03:33:42;4.60;99.90
64796;DHT22;51229;51.980;6.722;2022-09-29T03:36:08;4.60;99.90
64796;DHT22;51229;51.980;6.722;2022-09-29T03:38:36;4.60;99.90
64796;DHT22;51229;51.980;6.722;2022-09-29T03:41:02;4.60;99.90
64796;DHT22;51229;51.980;6.722;2022-09-29T03:43:28;4.60;99.90
64796;DHT22;51229;51.980;6.722;2022-09-29T03:45:55;4.60;99.90
64796;DHT22;51229;51.980;6.722;2022-09-29T03:48:22;4.50;99.90
64796;DHT22;51229;51.980;6.722;2022-09-29T03:50:49;4.50;99.90
64796;DHT22;51229;51.980;6.722;2022-09-29T03:53:15;4.50;99.90
64796;DHT22;51229;51.980;6.722;2022-09-29T03:55:46;4.50;99.90
64796;DHT22;51229;51.980;6.722;2022-09-29T03:58:12;4.50;99.90
64796;DHT22;51229;51.980;6.722;2022-09-29T04:00:38;4.50;99.90
64796;DHT22;51229;51.980;6.722;2022-09-29T04:03:04;4.40;99.90
64796;DHT22;51229;51.980;6.722;2022-09-29T04:05:29;4.40;99.90
64796;DHT22;51229;51.980;6.722;2022-09-29T04:07:55;4.40;99.90
64796;DHT22;51229;51.980;6.722;2022-09-29T04:10:21;4.40;99.90
64796;DHT22;51229;51.980;6.722;2022-09-29T04:12:47;4.40;99.90
64796;DHT22;51229;51.980;6.722;2022-09-29T04:15:12;4.40;99.90
64796;DHT22;51229;51.980;6.722;2022-09-29T04:17:38;4.40;99.90
64796;DHT22;51229;51.980;6.722;2022-09-29T04:20:04;4.40;99.90
64796;DHT22;51229;51.980;6.722;2022-09-29T04:22:30;4.40;99.90
64796;DHT22;51229;51.980;6.722;2022-09-29T04:24:55;4.40;99.90
64796;DHT22;51229;51.980;6.722;2022-09-29T04:27:21;4.30;99.90
64796;DHT22;51229;51.980;6.722;2022-09-29T04:29:47;4.30;99.90
64796;DHT22;51229;51.980;6.722;2022-09-29T04:32:12;4.30;99.90
64796;DHT22;51229;51.980;6.722;2022-09-29T04:34:38;4.20;99.90
64796;DHT22;51229;51.980;6.722;2022-09-29T04:37:06;4.20;99.90
64796;DHT22;51229;51.980;6.722;2022-09-29T04:39:35;4.20;99.90
64796;DHT22;51229;51.980;6.722;2022-09-29T04:42:01;4.20;99.90
64796;DHT22;51229;51.980;6.722;2022-09-29T04:44:27;4.20;99.90
64796;DHT22;51229;51.980;6.722;2022-09-29T04:46:53;4.20;99.90
64796;DHT22;51229;51.980;6.722;2022-09-29T04:49:19;4.20;99.90
64796;DHT22;51229;51.980;6.722;2022-09-29T04:51:45;4.10;99.90
64796;DHT22;51229;51.980;6.722;2022-09-29T04:54:11;4.10;99.90
64796;DHT22;51229;51.980;6.722;2022-09-29T04:56:37;4.10;99.90
64796;DHT22;51229;51.980;6.722;2022-09-29T04:59:02;4.10;99.90
64796;DHT22;51229;51.980;6.722;2022-09-29T05:01:28;4.10;99.90
64796;DHT22;51229;51.980;6.722;2022-09-29T05:03:55;4.00;99.90
64796;DHT22;51229;51.980;6.722;2022-09-29T05:06:21;4.10;99.90
64796;DHT22;51229;51.980;6.722;2022-09-29T05:08:46;4.10;99.90
64796;DHT22;51229;51.980;6.722;2022-09-29T05:11:12;4.00;99.90
64796;DHT22;51229;51.980;6.722;2022-09-29T05:13:38;4.00;99.90
64796;DHT22;51229;51.980;6.722;2022-09-29T05:16:04;4.00;99.90
64796;DHT22;51229;51.980;6.722;2022-09-29T05:18:30;4.00;99.90
64796;DHT22;51229;51.980;6.722;2022-09-29T05:21:04;4.00;99.90
64796;DHT22;51229;51.980;6.722;2022-09-29T05:23:30;4.00;99.90
64796;DHT22;51229;51.980;6.722;2022-09-29T05:26:03;4.00;99.90
64796;DHT22;51229;51.980;6.722;2022-09-29T05:28:29;4.00;99.90
64796;DHT22;51229;51.980;6.722;2022-09-29T05:31:03;4.00;99.90
64796;DHT22;51229;51.980;6.722;2022-09-29T05:33:29;3.90;99.90
64796;DHT22;51229;51.980;6.722;2022-09-29T05:35:54;3.90;99.90
64796;DHT22;51229;51.980;6.722;2022-09-29T05:38:20;3.90;99.90
64796;DHT22;51229;51.980;6.722;2022-09-29T05:40:47;3.80;99.90
64796;DHT22;51229;51.980;6.722;2022-09-29T05:43:13;3.80;99.90
64796;DHT22;51229;51.980;6.722;2022-09-29T05:45:39;3.90;99.90
64796;DHT22;51229;51.980;6.722;2022-09-29T05:48:05;3.90;99.90
64796;DHT22;51229;51.980;6.722;2022-09-29T05:50:30;3.90;99.90
64796;DHT22;51229;51.980;6.722;2022-09-29T05:53:02;3.90;99.90
64796;DHT22;51229;51.980;6.722;2022-09-29T05:55:27;3.90;99.90
64796;DHT22;51229;51.980;6.722;2022-09-29T05:57:53;3.80;99.90
64796;DHT22;51229;51.980;6.722;2022-09-29T06:00:19;3.80;99.90
64796;DHT22;51229;51.980;6.722;2022-09-29T06:02:45;3.70;99.90
64796;DHT22;51229;51.980;6.722;2022-09-29T06:05:10;3.60;99.90
64796;DHT22;51229;51.980;6.722;2022-09-29T06:07:36;3.60;99.90
64796;DHT22;51229;51.980;6.722;2022-09-29T06:10:02;3.70;99.90
64796;DHT22;51229;51.980;6.722;2022-09-29T06:12:33;3.60;99.90
64796;DHT22;51229;51.980;6.722;2022-09-29T06:14:59;3.80;99.90
64796;DHT22;51229;51.980;6.722;2022-09-29T06:17:25;4.00;99.90
64796;DHT22;51229;51.980;6.722;2022-09-29T06:19:50;4.10;99.90
64796;DHT22;51229;51.980;6.722;2022-09-29T06:22:18;4.10;99.90
64796;DHT22;51229;51.980;6.722;2022-09-29T06:24:44;4.10;99.90
64796;DHT22;51229;51.980;6.722;2022-09-29T06:27:09;4.10;99.90
64796;DHT22;51229;51.980;6.722;2022-09-29T06:29:35;4.00;99.90
64796;DHT22;51229;51.980;6.722;2022-09-29T06:32:02;4.10;99.90
64796;DHT22;51229;51.980;6.722;2022-09-29T06:34:27;4.10;99.90
64796;DHT22;51229;51.980;6.722;2022-09-29T06:36:53;4.00;99.90
64796;DHT22;51229;51.980;6.722;2022-09-29T06:39:37;4.10;99.90
64796;DHT22;51229;51.980;6.722;2022-09-29T06:42:03;4.10;99.90
64796;DHT22;51229;51.980;6.722;2022-09-29T06:44:29;4.00;99.90
64796;DHT22;51229;51.980;6.722;2022-09-29T06:46:57;4.20;99.90
64796;DHT22;51229;51.980;6.722;2022-09-29T06:49:23;4.20;99.90
64796;DHT22;51229;51.980;6.722;2022-09-29T06:51:50;4.30;99.90
64796;DHT22;51229;51.980;6.722;2022-09-29T06:54:18;4.80;99.90
64796;DHT22;51229;51.980;6.722;2022-09-29T06:56:49;5.40;99.90
64796;DHT22;51229;51.980;6.722;2022-09-29T06:59:15;5.80;99.90
64796;DHT22;51229;51.980;6.722;2022-09-29T07:01:41;6.00;99.90
64796;DHT22;51229;51.980;6.722;2022-09-29T07:04:07;6.20;99.90
64796;DHT22;51229;51.980;6.722;2022-09-29T07:06:33;6.40;99.90
64796;DHT22;51229;51.980;6.722;2022-09-29T07:08:59;6.50;99.90
64796;DHT22;51229;51.980;6.722;2022-09-29T07:11:26;6.80;99.90
64796;DHT22;51229;51.980;6.722;2022-09-29T07:13:53;7.20;99.90
64796;DHT22;51229;51.980;6.722;2022-09-29T07:16:19;7.10;99.90
64796;DHT22;51229;51.980;6.722;2022-09-29T07:18:48;7.00;99.90
64796;DHT22;51229;51.980;6.722;2022-09-29T07:21:14;7.40;99.90
64796;DHT22;51229;51.980;6.722;2022-09-29T07:23:43;7.60;99.90
64796;DHT22;51229;51.980;6.722;2022-09-29T07:26:09;7.90;99.90
64796;DHT22;51229;51.980;6.722;2022-09-29T07:28:36;8.00;99.90
64796;DHT22;51229;51.980;6.722;2022-09-29T07:31:04;7.80;99.90
64796;DHT22;51229;51.980;6.722;2022-09-29T07:33:30;8.20;99.90
64796;DHT22;51229;51.980;6.722;2022-09-29T07:35:56;8.60;99.90
64796;DHT22;51229;51.980;6.722;2022-09-29T07:38:28;8.60;99.90
64796;DHT22;51229;51.980;6.722;2022-09-29T07:40:59;8.50;99.90
64796;DHT22;51229;51.980;6.722;2022-09-29T07:43:25;8.80;99.90
64796;DHT22;51229;51.980;6.722;2022-09-29T07:45:51;9.00;99.90
64796;DHT22;51229;51.980;6.722;2022-09-29T07:48:17;9.50;99.90
64796;DHT22;51229;51.980;6.722;2022-09-29T07:50:43;9.60;99.90
64796;DHT22;51229;51.980;6.722;2022-09-29T07:53:10;9.60;99.90
64796;DHT22;51229;51.980;6.722;2022-09-29T07:55:36;10.40;99.90
64796;DHT22;51229;51.980;6.722;2022-09-29T07:58:02;11.10;99.90
64796;DHT22;51229;51.980;6.722;2022-09-29T08:00:29;10.90;99.90
64796;DHT22;51229;51.980;6.722;2022-09-29T08:03:05;11.10;99.90
64796;DHT22;51229;51.980;6.722;2022-09-29T08:05:32;10.80;99.90
64796;DHT22;51229;51.980;6.722;2022-09-29T08:08:00;11.10;99.90
64796;DHT22;51229;51.980;6.722;2022-09-29T08:10:26;11.60;99.90
64796;DHT22;51229;51.980;6.722;2022-09-29T08:12:53;11.80;99.90
64796;DHT22;51229;51.980;6.722;2022-09-29T08:15:20;11.40;99.90
64796;DHT22;51229;51.980;6.722;2022-09-29T08:17:46;11.20;99.90
64796;DHT22;51229;51.980;6.722;2022-09-29T08:20:12;11.90;99.90
64796;DHT22;51229;51.980;6.722;2022-09-29T08:22:38;12.20;99.90
64796;DHT22;51229;51.980;6.722;2022-09-29T08:25:03;12.20;99.90
64796;DHT22;51229;51.980;6.722;2022-09-29T08:27:29;12.50;99.90
64796;DHT22;51229;51.980;6.722;2022-09-29T08:29:55;13.40;99.90
64796;DHT22;51229;51.980;6.722;2022-09-29T08:32:22;13.80;99.90
64796;DHT22;51229;51.980;6.722;2022-09-29T08:34:48;13.60;99.90
64796;DHT22;51229;51.980;6.722;2022-09-29T08:37:13;13.70;99.90
64796;DHT22;51229;51.980;6.722;2022-09-29T08:39:39;13.90;99.90
64796;DHT22;51229;51.980;6.722;2022-09-29T08:42:20;13.40;99.90
64796;DHT22;51229;51.980;6.722;2022-09-29T08:44:55;13.90;99.90
64796;DHT22;51229;51.980;6.722;2022-09-29T08:47:36;14.00;99.90
64796;DHT22;51229;51.980;6.722;2022-09-29T08:52:33;15.00;99.90
64796;DHT22;51229;51.980;6.722;2022-09-29T08:57:45;15.80;99.90
64796;DHT22;51229;51.980;6.722;2022-09-29T09:00:13;16.60;99.90
64796;DHT22;51229;51.980;6.722;2022-09-29T09:07:55;16.10;99.90
64796;DHT22;51229;51.980;6.722;2022-09-29T09:10:41;16.10;99.90
64796;DHT22;51229;51.980;6.722;2022-09-29T09:16:32;17.40;98.20
64796;DHT22;51229;51.980;6.722;2022-09-29T09:21:54;17.30;99.90
64796;DHT22;51229;51.980;6.722;2022-09-29T09:24:54;17.60;99.90
64796;DHT22;51229;51.980;6.722;2022-09-29T09:27:22;18.20;98.30
64796;DHT22;51229;51.980;6.722;2022-09-29T09:29:49;18.00;98.20
64796;DHT22;51229;51.980;6.722;2022-09-29T09:32:24;18.10;98.30
64796;DHT22;51229;51.980;6.722;2022-09-29T09:37:50;19.00;97.50
64796;DHT22;51229;51.980;6.722;2022-09-29T09:40:20;18.50;97.60
64796;DHT22;51229;51.980;6.722;2022-09-29T09:42:57;19.20;96.80
64796;DHT22;51229;51.980;6.722;2022-09-29T09:45:41;19.30;96.20
64796;DHT22;51229;51.980;6.722;2022-09-29T09:48:44;19.20;96.40
64796;DHT22;51229;51.980;6.722;2022-09-29T09:53:47;18.60;96.90
64796;DHT22;51229;51.980;6.722;2022-09-29T09:56:44;18.40;97.80
64796;DHT22;51229;51.980;6.722;2022-09-29T10:02:17;19.20;96.60
64796;DHT22;51229;51.980;6.722;2022-09-29T10:04:47;19.30;94.60
64796;DHT22;51229;51.980;6.722;2022-09-29T10:07:14;19.70;96.80
64796;DHT22;51229;51.980;6.722;2022-09-29T10:09:40;19.10;94.60
64796;DHT22;51229;51.980;6.722;2022-09-29T10:12:19;16.70;99.90
64796;DHT22;51229;51.980;6.722;2022-09-29T10:15:19;19.10;98.00
64796;DHT22;51229;51.980;6.722;2022-09-29T10:17:55;20.60;96.00
64796;DHT22;51229;51.980;6.722;2022-09-29T10:20:35;21.10;94.90
64796;DHT22;51229;51.980;6.722;2022-09-29T10:23:31;19.80;94.70
64796;DHT22;51229;51.980;6.722;2022-09-29T10:28:43;20.60;95.40
64796;DHT22;51229;51.980;6.722;2022-09-29T10:31:21;22.00;93.70
64796;DHT22;51229;51.980;6.722;2022-09-29T10:33:59;22.20;93.20
64796;DHT22;51229;51.980;6.722;2022-09-29T10:36:31;22.70;92.60
64796;DHT22;51229;51.980;6.722;2022-09-29T10:38:58;22.10;90.10
64796;DHT22;51229;51.980;6.722;2022-09-29T10:41:23;21.00;94.20
64796;DHT22;51229;51.980;6.722;2022-09-29T10:43:50;21.80;93.10
64796;DHT22;51229;51.980;6.722;2022-09-29T10:46:33;19.30;95.20
64796;DHT22;51229;51.980;6.722;2022-09-29T10:49:08;18.70;97.90
64796;DHT22;51229;51.980;6.722;2022-09-29T10:51:35;18.10;98.50
64796;DHT22;51229;51.980;6.722;2022-09-29T10:54:08;18.20;99.80
64796;DHT22;51229;51.980;6.722;2022-09-29T10:56:36;18.50;98.80
64796;DHT22;51229;51.980;6.722;2022-09-29T10:59:02;20.60;96.60
64796;DHT22;51229;51.980;6.722;2022-09-29T11:01:31;22.20;94.30
64796;DHT22;51229;51.980;6.722;2022-09-29T11:04:02;22.80;93.20
64796;DHT22;51229;51.980;6.722;2022-09-29T11:06:34;22.10;93.50
64796;DHT22;51229;51.980;6.722;2022-09-29T11:09:06;22.10;93.60
64796;DHT22;51229;51.980;6.722;2022-09-29T11:11:37;22.90;92.50
64796;DHT22;51229;51.980;6.722;2022-09-29T11:14:04;21.60;93.80
64796;DHT22;51229;51.980;6.722;2022-09-29T11:16:35;22.60;93.10
64796;DHT22;51229;51.980;6.722;2022-09-29T11:19:13;22.40;92.90
64796;DHT22;51229;51.980;6.722;2022-09-29T11:37:52;21.70;94.80
64796;DHT22;51229;51.980;6.722;2022-09-29T11:55:06;23.00;91.60
64796;DHT22;51229;51.980;6.722;2022-09-29T11:57:47;22.20;92.10
64796;DHT22;51229;51.980;6.722;2022-09-29T12:00:18;23.50;91.10
64796;DHT22;51229;51.980;6.722;2022-09-29T12:05:37;22.70;91.60
64796;DHT22;51229;51.980;6.722;2022-09-29T12:08:17;22.80;92.20
64796;DHT22;51229;51.980;6.722;2022-09-29T12:11:06;22.90;89.30
64796;DHT22;51229;51.980;6.722;2022-09-29T12:14:00;21.80;93.50
64796;DHT22;51229;51.980;6.722;2022-09-29T12:16:33;21.60;93.90
64796;DHT22;51229;51.980;6.722;2022-09-29T12:19:15;23.70;91.60
64796;DHT22;51229;51.980;6.722;2022-09-29T12:21:46;23.30;91.70
64796;DHT22;51229;51.980;6.722;2022-09-29T12:24:42;23.30;91.80
64796;DHT22;51229;51.980;6.722;2022-09-29T12:27:17;23.90;91.00
64796;DHT22;51229;51.980;6.722;2022-09-29T12:29:49;24.30;90.60
64796;DHT22;51229;51.980;6.722;2022-09-29T12:32:22;24.60;90.40
64796;DHT22;51229;51.980;6.722;2022-09-29T12:34:58;25.60;88.00
64796;DHT22;51229;51.980;6.722;2022-09-29T12:37:35;24.90;77.20
64796;DHT22;51229;51.980;6.722;2022-09-29T12:40:18;23.70;90.60
64796;DHT22;51229;51.980;6.722;2022-09-29T12:51:12;23.00;85.70
64796;DHT22;51229;51.980;6.722;2022-09-29T12:54:08;22.40;78.50
64796;DHT22;51229;51.980;6.722;2022-09-29T12:56:42;24.80;86.70
64796;DHT22;51229;51.980;6.722;2022-09-29T13:01:39;24.60;87.20
64796;DHT22;51229;51.980;6.722;2022-09-29T13:09:59;21.50;91.30
64796;DHT22;51229;51.980;6.722;2022-09-29T13:15:47;24.80;87.70
64796;DHT22;51229;51.980;6.722;2022-09-29T13:21:23;24.70;83.20
64796;DHT22;51229;51.980;6.722;2022-09-29T13:24:16;23.40;88.70
64796;DHT22;51229;51.980;6.722;2022-09-29T13:29:17;21.60;85.70
64796;DHT22;51229;51.980;6.722;2022-09-29T13:31:45;21.50;92.00
64796;DHT22;51229;51.980;6.722;2022-09-29T13:34:26;21.00;92.90
64796;DHT22;51229;51.980;6.722;2022-09-29T13:36:53;21.40;92.50
64796;DHT22;51229;51.980;6.722;2022-09-29T13:39:30;21.30;92.60
64796;DHT22;51229;51.980;6.722;2022-09-29T13:41:55;19.10;93.70
64796;DHT22;51229;51.980;6.722;2022-09-29T13:44:30;19.10;94.40
64796;DHT22;51229;51.980;6.722;2022-09-29T13:47:26;20.40;94.00
64796;DHT22;51229;51.980;6.722;2022-09-29T13:52:45;20.70;92.80
64796;DHT22;51229;51.980;6.722;2022-09-29T13:58:35;20.40;90.10
64796;DHT22;51229;51.980;6.722;2022-09-29T14:01:04;18.40;96.30
64796;DHT22;51229;51.980;6.722;2022-09-29T14:03:39;19.50;95.50
64796;DHT22;51229;51.980;6.722;2022-09-29T14:06:16;20.00;94.90
64796;DHT22;51229;51.980;6.722;2022-09-29T14:08:54;20.10;94.40
64796;DHT22;51229;51.980;6.722;2022-09-29T14:11:34;20.10;94.10
64796;DHT22;51229;51.980;6.722;2022-09-29T14:27:44;18.90;96.20
64796;DHT22;51229;51.980;6.722;2022-09-29T14:30:18;19.00;93.20
64796;DHT22;51229;51.980;6.722;2022-09-29T14:35:33;17.30;85.00
64796;DHT22;51229;51.980;6.722;2022-09-29T14:38:09;16.80;88.10
64796;DHT22;51229;51.980;6.722;2022-09-29T14:40:37;17.30;98.90
64796;DHT22;51229;51.980;6.722;2022-09-29T14:43:04;18.00;97.80
64796;DHT22;51229;51.980;6.722;2022-09-29T14:49:22;18.00;98.10
64796;DHT22;51229;51.980;6.722;2022-09-29T14:52:31;18.10;97.50
64796;DHT22;51229;51.980;6.722;2022-09-29T14:58:21;18.00;97.90
64796;DHT22;51229;51.980;6.722;2022-09-29T15:03:54;18.00;98.10
64796;DHT22;51229;51.980;6.722;2022-09-29T15:06:26;17.70;97.10
64796;DHT22;51229;51.980;6.722;2022-09-29T15:09:19;17.50;93.30
64796;DHT22;51229;51.980;6.722;2022-09-29T15:11:49;17.30;94.30
64796;DHT22;51229;51.980;6.722;2022-09-29T15:14:24;17.20;95.10
64796;DHT22;51229;51.980;6.722;2022-09-29T15:19:42;17.20;96.20
64796;DHT22;51229;51.980;6.722;2022-09-29T15:27:19;16.90;97.20
64796;DHT22;51229;51.980;6.722;2022-09-29T15:29:47;16.50;97.80
64796;DHT22;51229;51.980;6.722;2022-09-29T15:34:48;16.70;95.30
64796;DHT22;51229;51.980;6.722;2022-09-29T15:37:15;16.50;98.70
64796;DHT22;51229;51.980;6.722;2022-09-29T15:39:48;16.50;96.20
64796;DHT22;51229;51.980;6.722;2022-09-29T15:42:18;15.60;99.00
64796;DHT22;51229;51.980;6.722;2022-09-29T15:45:13;16.00;99.40
64796;DHT22;51229;51.980;6.722;2022-09-29T15:47:40;16.40;98.80
64796;DHT22;51229;51.980;6.722;2022-09-29T15:50:23;16.40;98.80
64796;DHT22;51229;51.980;6.722;2022-09-29T15:52:50;16.10;98.80
64796;DHT22;51229;51.980;6.722;2022-09-29T15:55:18;16.10;99.40
64796;DHT22;51229;51.980;6.722;2022-09-29T15:57:45;16.10;99.40
64796;DHT22;51229;51.980;6.722;2022-09-29T16:03:11;16.20;99.40
64796;DHT22;51229;51.980;6.722;2022-09-29T16:05:41;15.70;99.80
64796;DHT22;51229;51.980;6.722;2022-09-29T16:08:20;15.70;99.90
64796;DHT22;51229;51.980;6.722;2022-09-29T16:10:48;15.70;99.40
64796;DHT22;51229;51.980;6.722;2022-09-29T16:13:19;15.30;99.90
64796;DHT22;51229;51.980;6.722;2022-09-29T16:15:48;15.40;99.90
64796;DHT22;51229;51.980;6.722;2022-09-29T16:18:23;15.60;99.90
64796;DHT22;51229;51.980;6.722;2022-09-29T16:20:50;15.50;99.90
64796;DHT22;51229;51.980;6.722;2022-09-29T16:28:57;15.10;99.90
64796;DHT22;51229;51.980;6.722;2022-09-29T16:31:26;15.00;99.90
64796;DHT22;51229;51.980;6.722;2022-09-29T16:33:54;15.00;99.90
64796;DHT22;51229;51.980;6.722;2022-09-29T16:38:52;15.00;99.90
64796;DHT22;51229;51.980;6.722;2022-09-29T16:44:05;14.90;99.90
64796;DHT22;51229;51.980;6.722;2022-09-29T16:49:44;14.80;99.90
64796;DHT22;51229;51.980;6.722;2022-09-29T16:52:14;14.70;99.90
64796;DHT22;51229;51.980;6.722;2022-09-29T16:54:42;14.70;99.90
64796;DHT22;51229;51.980;6.722;2022-09-29T16:57:31;14.60;99.90
64796;DHT22;51229;51.980;6.722;2022-09-29T17:00:09;14.50;99.90
64796;DHT22;51229;51.980;6.722;2022-09-29T17:02:35;14.40;99.90
64796;DHT22;51229;51.980;6.722;2022-09-29T17:05:01;14.40;99.90
64796;DHT22;51229;51.980;6.722;2022-09-29T17:07:29;14.30;99.90
64796;DHT22;51229;51.980;6.722;2022-09-29T17:09:57;14.20;99.90
64796;DHT22;51229;51.980;6.722;2022-09-29T17:12:26;14.20;99.90
64796;DHT22;51229;51.980;6.722;2022-09-29T17:14:52;14.10;99.90
64796;DHT22;51229;51.980;6.722;2022-09-29T17:17:26;14.00;99.90
64796;DHT22;51229;51.980;6.722;2022-09-29T17:19:53;13.90;99.90
64796;DHT22;51229;51.980;6.722;2022-09-29T17:22:29;13.80;99.90
64796;DHT22;51229;51.980;6.722;2022-09-29T17:24:55;13.80;99.90
64796;DHT22;51229;51.980;6.722;2022-09-29T17:27:21;13.70;99.90
64796;DHT22;51229;51.980;6.722;2022-09-29T17:30:05;13.60;99.90
64796;DHT22;51229;51.980;6.722;2022-09-29T17:32:31;13.50;99.90
64796;DHT22;51229;51.980;6.722;2022-09-29T17:34:57;13.50;99.90
64796;DHT22;51229;51.980;6.722;2022-09-29T17:37:23;13.40;99.90
64796;DHT22;51229;51.980;6.722;2022-09-29T17:39:49;13.30;99.90
64796;DHT22;51229;51.980;6.722;2022-09-29T17:42:15;13.30;99.90
64796;DHT22;51229;51.980;6.722;2022-09-29T17:44:42;13.20;99.90
64796;DHT22;51229;51.980;6.722;2022-09-29T17:47:15;13.10;99.90
64796;DHT22;51229;51.980;6.722;2022-09-29T17:49:42;13.00;99.90
64796;DHT22;51229;51.980;6.722;2022-09-29T17:52:08;13.00;99.90
64796;DHT22;51229;51.980;6.722;2022-09-29T17:54:37;12.90;99.90
64796;DHT22;51229;51.980;6.722;2022-09-29T17:57:04;12.80;99.90
64796;DHT22;51229;51.980;6.722;2022-09-29T17:59:30;12.80;99.90
64796;DHT22;51229;51.980;6.722;2022-09-29T18:02:10;12.70;99.90
64796;DHT22;51229;51.980;6.722;2022-09-29T18:04:37;12.70;99.90
64796;DHT22;51229;51.980;6.722;2022-09-29T18:07:07;12.60;99.90
64796;DHT22;51229;51.980;6.722;2022-09-29T18:09:33;12.60;99.90
64796;DHT22;51229;51.980;6.722;2022-09-29T18:11:58;12.50;99.90
64796;DHT22;51229;51.980;6.722;2022-09-29T18:14:24;12.50;99.90
64796;DHT22;51229;51.980;6.722;2022-09-29T18:16:49;12.40;99.90
64796;DHT22;51229;51.980;6.722;2022-09-29T18:19:16;12.30;99.90
64796;DHT22;51229;51.980;6.722;2022-09-29T18:21:42;12.30;99.90
64796;DHT22;51229;51.980;6.722;2022-09-29T18:24:07;12.20;99.90
64796;DHT22;51229;51.980;6.722;2022-09-29T18:26:35;12.10;99.90
64796;DHT22;51229;51.980;6.722;2022-09-29T18:29:12;12.00;99.90
64796;DHT22;51229;51.980;6.722;2022-09-29T18:31:38;12.00;99.90
64796;DHT22;51229;51.980;6.722;2022-09-29T18:34:04;11.90;99.90
64796;DHT22;51229;51.980;6.722;2022-09-29T18:36:30;11.90;99.90
64796;DHT22;51229;51.980;6.722;2022-09-29T18:38:55;11.80;99.90
64796;DHT22;51229;51.980;6.722;2022-09-29T18:41:21;11.80;99.90
64796;DHT22;51229;51.980;6.722;2022-09-29T18:43:48;11.80;99.90
64796;DHT22;51229;51.980;6.722;2022-09-29T18:46:16;11.70;99.90